Time;durP1;ratioP1;P1;durP2;ratioP2;P2;SDS_P1;SDS_P2;PMS_P1;PMS_P2;Temp;Humidity;BMP_temperature;BMP_pressure;BME280_temperature;BME280_humidity;BME280_pressure;Samples;Min_cycle;Max_cycle;Signal;HPM_P1;HPM_P2
2022/09/28 00:01:26;;;;;;;3.90;0.52;;;;;;;7.98;100.00;96694.13;4778624;29;20063;-91
2022/09/28 00:03:57;;;;;;;3.10;0.50;;;;;;;8.05;100.00;96700.81;4776007;29;20126;-91
2022/09/28 00:06:27;;;;;;;6.55;1.20;;;;;;;7.97;100.00;96698.44;4775495;29;20633;-91
2022/09/28 00:09:05;;;;;;;3.63;0.80;;;;;;;8.08;100.00;96694.69;4783522;29;20058;-90
2022/09/28 00:11:34;;;;;;;5.05;0.60;;;;;;;8.08;100.00;96695.53;4783161;29;20539;-92
2022/09/28 00:14:08;;;;;;;3.15;0.52;;;;;;;8.08;100.00;96686.91;4780139;29;20145;-91
2022/09/28 00:16:42;;;;;;;3.63;0.75;;;;;;;8.06;100.00;96697.34;4780486;29;20043;-91
2022/09/28 00:19:11;;;;;;;4.55;0.82;;;;;;;8.09;100.00;96701.59;4779674;29;20043;-91
2022/09/28 00:21:48;;;;;;;4.97;0.77;;;;;;;7.99;100.00;96688.06;4786343;29;20102;-90
2022/09/28 00:24:18;;;;;;;4.68;0.75;;;;;;;8.02;100.00;96695.72;4787603;29;20504;-91
2022/09/28 00:26:50;;;;;;;5.18;0.88;;;;;;;7.77;100.00;96693.06;4786180;29;20038;-91
2022/09/28 00:29:28;;;;;;;5.63;0.90;;;;;;;7.83;100.00;96692.84;4785395;29;20142;-91
2022/09/28 00:32:12;;;;;;;3.65;0.70;;;;;;;7.89;100.00;96697.00;4780683;29;20099;-92
2022/09/28 00:35:09;;;;;;;5.18;0.70;;;;;;;7.77;100.00;96695.66;4780357;29;20836;-91
2022/09/28 00:37:41;;;;;;;4.63;0.70;;;;;;;7.64;100.00;96677.88;4782231;29;20850;-90
2022/09/28 00:40:12;;;;;;;4.40;0.73;;;;;;;7.54;100.00;96688.56;4782952;29;20057;-90
2022/09/28 00:42:41;;;;;;;4.47;0.80;;;;;;;7.64;100.00;96687.38;4781925;29;20138;-92
2022/09/28 00:45:18;;;;;;;4.93;0.65;;;;;;;7.73;100.00;96697.50;4782068;29;20196;-91
2022/09/28 00:47:55;;;;;;;4.32;0.57;;;;;;;7.67;100.00;96700.28;4780541;29;20054;-89
2022/09/28 00:50:38;;;;;;;2.63;0.50;;;;;;;7.51;100.00;96698.16;4782579;29;20047;-90
2022/09/28 00:53:31;;;;;;;3.63;0.70;;;;;;;7.63;100.00;96693.50;4785393;29;20121;-92
2022/09/28 00:56:10;;;;;;;2.40;0.55;;;;;;;7.32;100.00;96681.41;4783464;29;20467;-91
2022/09/28 00:58:54;;;;;;;8.10;0.75;;;;;;;7.43;100.00;96683.69;4797602;29;20039;-90
2022/09/28 01:01:40;;;;;;;2.95;0.60;;;;;;;7.44;100.00;96677.63;4773903;29;20511;-91
2022/09/28 01:04:06;;;;;;;6.28;0.80;;;;;;;7.39;100.00;96675.19;4776102;29;20130;-92
2022/09/28 01:06:34;;;;;;;4.63;0.90;;;;;;;7.48;100.00;96685.25;4782699;29;20122;-92
2022/09/28 01:09:12;;;;;;;4.07;0.77;;;;;;;7.47;100.00;96665.44;4782153;29;20061;-91
2022/09/28 01:11:45;;;;;;;3.72;0.68;;;;;;;7.75;100.00;96677.56;4773571;29;20042;-90
2022/09/28 01:14:12;;;;;;;;;;;;;;;7.72;100.00;96682.81;4780448;29;20046;-92
2022/09/28 01:16:56;;;;;;;;;;;;;;;;;;;;;
2022/09/28 01:19:43;;;;;;;1.58;0.40;;;;;;;7.77;100.00;96667.13;4780635;29;20055;-92
2022/09/28 01:22:35;;;;;;;7.25;0.90;;;;;;;7.85;100.00;96684.13;4782419;29;20041;-90
2022/09/28 01:25:11;;;;;;;2.80;0.60;;;;;;;7.92;100.00;96678.72;4781398;29;20046;-91
2022/09/28 01:28:13;;;;;;;3.72;0.55;;;;;;;8.00;100.00;96687.13;4782350;29;20531;-91
2022/09/28 01:30:48;;;;;;;6.65;0.73;;;;;;;8.10;100.00;96682.50;4781679;29;20073;-92
2022/09/28 01:33:31;;;;;;;4.75;0.68;;;;;;;8.03;100.00;96682.69;4776065;29;20042;-90
2022/09/28 01:36:05;;;;;;;5.78;0.65;;;;;;;8.05;100.00;96680.06;4779633;29;20048;-91
2022/09/28 01:39:23;;;;;;;1.50;0.40;;;;;;;7.92;100.00;96684.78;4776794;29;20050;-92
2022/09/28 01:41:56;;;;;;;4.22;0.70;;;;;;;8.12;100.00;96667.72;4729374;30;20048;-92
2022/09/28 01:44:41;;;;;;;5.28;0.82;;;;;;;7.82;100.00;96670.41;4745832;30;20040;-91
2022/09/28 01:47:20;;;;;;;3.05;0.68;;;;;;;7.79;100.00;96675.69;4731708;30;20153;-92
2022/09/28 01:49:56;;;;;;;4.00;0.50;;;;;;;7.68;100.00;96676.00;4730170;30;20597;-91
2022/09/28 01:52:53;;;;;;;5.78;0.80;;;;;;;7.55;100.00;96674.72;4730650;30;20063;-92
2022/09/28 01:55:26;;;;;;;2.00;0.55;;;;;;;7.57;100.00;96688.47;4703682;30;20128;-91
2022/09/28 01:58:02;;;;;;;;;;;;;;;7.66;100.00;96690.78;4727753;30;20064;-92
2022/09/28 02:03:53;;;;;;;2.83;0.73;;;;;;;7.43;100.00;96683.69;4762315;30;20082;-93
2022/09/28 02:06:31;;;;;;;2.60;0.50;;;;;;;7.40;100.00;96665.66;4764285;30;20604;-92
2022/09/28 02:09:02;;;;;;;5.22;0.60;;;;;;;7.97;100.00;96672.50;4765325;30;20104;-94
2022/09/28 02:12:14;;;;;;;3.55;0.50;;;;;;;8.20;100.00;96676.94;4757475;30;20129;-92
2022/09/28 02:14:55;;;;;;;1.75;0.47;;;;;;;7.69;100.00;96681.16;4764896;30;20035;-94
2022/09/28 02:17:35;;;;;;;2.38;0.45;;;;;;;7.61;100.00;96667.59;4761980;29;20035;-94
2022/09/28 02:20:03;;;;;;;1.33;0.40;;;;;;;7.92;100.00;96679.59;4750466;30;20035;-93
2022/09/28 02:22:39;;;;;;;4.20;0.60;;;;;;;7.70;100.00;96666.47;4766952;30;20044;-94
2022/09/28 02:25:12;;;;;;;4.03;0.60;;;;;;;8.25;100.00;96676.78;4754048;30;20040;-94
2022/09/28 02:28:25;;;;;;;2.42;0.50;;;;;;;8.41;100.00;96682.34;4755346;30;20035;-92
2022/09/28 02:30:54;;;;;;;2.40;0.52;;;;;;;8.29;100.00;96674.94;4704006;30;20555;-93
2022/09/28 02:33:43;;;;;;;6.40;0.95;;;;;;;8.20;100.00;96663.13;4697330;30;20041;-93
2022/09/28 02:36:11;;;;;;;3.17;0.65;;;;;;;8.17;100.00;96674.47;4684713;30;20057;-92
2022/09/28 02:39:02;;;;;;;3.83;0.77;;;;;;;8.16;100.00;96670.16;4697136;30;20056;-92
2022/09/28 02:42:15;;;;;;;2.30;0.50;;;;;;;8.29;100.00;96687.94;4700438;30;20033;-92
2022/09/28 02:45:02;;;;;;;3.22;0.90;;;;;;;7.69;100.00;96688.94;4695682;30;20537;-91
2022/09/28 02:48:01;;;;;;;;;;;;;;;;;;;;;
2022/09/28 02:51:02;;;;;;;2.80;0.50;;;;;;;7.75;100.00;96679.28;4701944;30;20045;-92
2022/09/28 02:53:52;;;;;;;3.88;0.75;;;;;;;7.65;100.00;96686.50;4709073;30;20042;-95
2022/09/28 02:56:53;;;;;;;4.10;0.65;;;;;;;7.55;100.00;96679.91;4699365;30;20084;-92
2022/09/28 02:59:47;;;;;;;3.67;0.68;;;;;;;7.68;100.00;96674.28;4711806;30;20162;-93
2022/09/28 03:02:29;;;;;;;2.95;0.65;;;;;;;7.51;100.00;96660.97;4705442;30;20064;-94
2022/09/28 03:05:31;;;;;;;4.07;0.80;;;;;;;7.65;100.00;96679.53;4722056;30;20568;-94
2022/09/28 03:11:23;;;;;;;3.22;0.70;;;;;;;8.38;100.00;96678.09;4760881;30;20122;-94
2022/09/28 03:13:52;;;;;;;5.10;0.88;;;;;;;8.19;100.00;96667.44;4764211;30;20040;-93
2022/09/28 03:16:27;;;;;;;2.50;0.55;;;;;;;8.42;100.00;96684.03;4763370;30;20107;-92
2022/09/28 03:19:07;;;;;;;1.88;0.55;;;;;;;8.61;100.00;96680.84;4751029;30;20460;-92
2022/09/28 03:21:40;;;;;;;2.60;0.70;;;;;;;8.43;100.00;96672.72;4766404;30;20028;-93
2022/09/28 03:26:52;;;;;;;3.05;0.75;;;;;;;7.89;100.00;96660.66;4768321;30;20077;-92
2022/09/28 03:29:42;;;;;;;4.25;0.93;;;;;;;7.82;100.00;96675.59;4751948;30;20043;-93
2022/09/28 03:32:14;;;;;;;2.00;0.50;;;;;;;7.81;100.00;96669.56;4750783;30;20096;-93
2022/09/28 03:34:48;;;;;;;3.03;0.70;;;;;;;7.92;100.00;96683.94;4765210;30;20031;-92
2022/09/28 03:37:13;;;;;;;3.58;0.63;;;;;;;7.88;100.00;96677.13;4763951;30;20954;-93
2022/09/28 03:39:41;;;;;;;3.30;0.57;;;;;;;7.84;100.00;96673.81;4747880;30;20043;-95
2022/09/28 03:42:10;;;;;;;2.10;0.55;;;;;;;7.72;100.00;96677.63;4751474;30;20036;-94
2022/09/28 03:44:35;;;;;;;3.65;0.68;;;;;;;7.79;100.00;96683.47;4767662;30;20042;-94
2022/09/28 03:47:07;;;;;;;4.00;0.60;;;;;;;7.86;100.00;96670.28;4762882;30;20035;-93
2022/09/28 03:49:33;;;;;;;4.03;0.82;;;;;;;7.81;100.00;96698.09;4767609;30;20040;-96
2022/09/28 03:51:59;;;;;;;1.90;0.60;;;;;;;7.68;100.00;96676.88;4768151;30;20047;-95
2022/09/28 03:54:24;;;;;;;2.72;0.60;;;;;;;7.92;100.00;96681.34;4768978;30;20039;-94
2022/09/28 03:56:52;;;;;;;1.73;0.43;;;;;;;7.78;100.00;96677.44;4754049;30;20052;-93
2022/09/28 03:59:18;;;;;;;4.28;0.77;;;;;;;7.61;100.00;96684.88;4770767;30;20850;-94
2022/09/28 04:01:48;;;;;;;4.55;0.73;;;;;;;7.76;100.00;96689.59;4754993;30;20055;-94
2022/09/28 04:04:18;;;;;;;2.13;0.82;;;;;;;7.64;100.00;96687.38;4770345;30;20051;-94
2022/09/28 04:06:50;;;;;;;5.05;1.35;;;;;;;7.58;100.00;96690.19;4765000;30;20151;-95
2022/09/28 04:09:15;;;;;;;2.35;0.60;;;;;;;7.66;100.00;96688.19;4769474;30;20074;-93
2022/09/28 04:11:41;;;;;;;4.22;0.70;;;;;;;7.59;100.00;96692.72;4765679;30;20093;-94
2022/09/28 04:14:07;;;;;;;5.65;0.90;;;;;;;7.62;100.00;96696.97;4752805;30;20100;-93
2022/09/28 04:16:33;;;;;;;3.30;0.80;;;;;;;7.61;100.00;96708.25;4764789;30;20675;-95
2022/09/28 04:18:58;;;;;;;2.80;0.70;;;;;;;7.45;100.00;96706.09;4770577;30;20090;-94
2022/09/28 04:21:25;;;;;;;4.05;0.70;;;;;;;7.29;100.00;96694.47;4752895;30;20103;-94
2022/09/28 04:24:00;;;;;;;1.92;0.50;;;;;;;7.27;100.00;96696.28;4753402;30;20032;-93
2022/09/28 04:26:39;;;;;;;2.47;0.68;;;;;;;7.34;100.00;96692.59;4772354;30;20053;-94
2022/09/28 04:29:19;;;;;;;4.80;1.10;;;;;;;7.31;100.00;96703.91;4753554;30;20388;-93
2022/09/28 04:31:53;;;;;;;3.05;0.60;;;;;;;7.17;100.00;96711.25;4765599;30;20054;-93
2022/09/28 04:34:23;;;;;;;2.28;0.60;;;;;;;7.12;100.00;96707.94;4777103;29;20035;-93
2022/09/28 04:36:49;;;;;;;3.55;0.80;;;;;;;7.06;100.00;96700.34;4750612;30;20519;-93
2022/09/28 04:39:23;;;;;;;6.38;1.05;;;;;;;6.91;100.00;96705.03;4768682;30;20063;-93
2022/09/28 04:41:48;;;;;;;3.03;0.70;;;;;;;7.10;100.00;96704.56;4766655;30;20043;-95
2022/09/28 04:44:14;;;;;;;4.18;0.80;;;;;;;7.19;100.00;96725.00;4763558;30;20131;-94
2022/09/28 04:46:46;;;;;;;4.15;0.70;;;;;;;7.59;100.00;96717.81;4767680;30;20542;-93
2022/09/28 04:49:16;;;;;;;2.90;0.80;;;;;;;7.39;100.00;96708.03;4745831;30;20714;-93
2022/09/28 04:51:44;;;;;;;2.45;0.50;;;;;;;7.46;100.00;96715.59;4763184;30;20286;-94
2022/09/28 04:54:14;;;;;;;3.63;0.75;;;;;;;7.44;100.00;96712.19;4753146;30;20024;-93
2022/09/28 04:56:40;;;;;;;1.83;0.65;;;;;;;7.77;100.00;96719.84;4769083;30;20035;-93
2022/09/28 04:59:13;;;;;;;4.85;1.00;;;;;;;7.74;100.00;96713.91;4753207;30;20068;-93
2022/09/28 05:01:46;;;;;;;3.17;0.60;;;;;;;7.82;100.00;96730.06;4767085;30;20529;-93
2022/09/28 05:04:15;;;;;;;5.28;0.88;;;;;;;7.73;100.00;96705.28;4767062;30;20101;-94
2022/09/28 05:07:08;;;;;;;2.75;0.80;;;;;;;7.91;100.00;96709.03;4763592;30;20099;-93
2022/09/28 05:09:39;;;;;;;2.67;0.63;;;;;;;7.89;100.00;96707.38;4753481;30;20428;-93
2022/09/28 05:12:10;;;;;;;5.30;1.20;;;;;;;7.93;100.00;96709.00;4765804;30;22561;-93
2022/09/28 05:14:36;;;;;;;3.33;0.90;;;;;;;8.00;100.00;96713.94;4766015;30;20031;-93
2022/09/28 05:17:10;;;;;;;4.85;0.70;;;;;;;7.85;100.00;96704.91;4752771;30;20047;-94
2022/09/28 05:19:36;;;;;;;6.55;0.90;;;;;;;7.83;100.00;96706.66;4752776;30;20118;-94
2022/09/28 05:22:03;;;;;;;3.15;0.60;;;;;;;7.86;100.00;96710.91;4767517;30;20123;-93
2022/09/28 05:24:37;;;;;;;4.72;0.95;;;;;;;7.89;100.00;96707.38;4752692;30;20051;-93
2022/09/28 05:27:05;;;;;;;2.58;0.60;;;;;;;7.97;100.00;96716.63;4750750;30;20032;-94
2022/09/28 05:29:39;;;;;;;4.82;0.82;;;;;;;7.91;100.00;96703.84;4767880;30;20039;-94
2022/09/28 05:32:15;;;;;;;3.25;0.80;;;;;;;8.08;100.00;96718.88;4765449;30;20035;-94
2022/09/28 05:34:54;;;;;;;3.03;0.60;;;;;;;8.07;100.00;96712.00;4766741;30;20035;-94
2022/09/28 05:37:41;;;;;;;;;;;;;;;;;;;;;
2022/09/28 05:40:15;;;;;;;6.25;0.75;;;;;;;7.93;100.00;96702.03;4764505;30;20048;-92
2022/09/28 05:42:47;;;;;;;3.08;0.73;;;;;;;7.51;100.00;96716.31;4767046;30;20093;-92
2022/09/28 05:45:37;;;;;;;4.50;0.80;;;;;;;7.40;100.00;96702.78;4759022;30;20038;-93
2022/09/28 05:48:12;;;;;;;5.88;0.90;;;;;;;7.51;100.00;96721.50;4750381;30;20055;-93
2022/09/28 05:50:57;;;;;;;5.20;0.93;;;;;;;7.42;100.00;96710.53;4772344;29;20064;-92
2022/09/28 05:53:26;;;;;;;6.25;0.98;;;;;;;7.47;100.00;96724.22;4750438;30;20067;-93
2022/09/28 05:55:52;;;;;;;2.38;0.70;;;;;;;7.73;100.00;96720.84;4748308;30;20440;-92
2022/09/28 05:58:30;;;;;;;5.05;0.90;;;;;;;7.55;100.00;96711.03;4764455;30;20511;-94
2022/09/28 06:00:58;;;;;;;4.57;0.93;;;;;;;7.50;100.00;96712.00;4762710;30;20060;-95
2022/09/28 06:03:41;;;;;;;5.32;0.88;;;;;;;7.64;100.00;96710.72;4740351;30;20040;-92
2022/09/28 06:06:16;;;;;;;2.95;0.60;;;;;;;7.63;100.00;96720.28;4754835;30;20059;-94
2022/09/28 06:08:48;;;;;;;4.25;0.80;;;;;;;7.60;100.00;96719.50;4750803;30;20058;-94
2022/09/28 06:11:38;;;;;;;6.93;0.95;;;;;;;7.80;100.00;96730.13;4768613;30;20116;-95
2022/09/28 06:14:04;;;;;;;4.13;0.80;;;;;;;7.76;100.00;96725.09;4752782;30;20031;-95
2022/09/28 06:16:37;;;;;;;3.47;0.70;;;;;;;7.80;100.00;96727.53;4759169;30;20056;-96
2022/09/28 06:19:28;;;;;;;3.75;0.80;;;;;;;8.00;100.00;96746.81;4753425;30;20056;-95
2022/09/28 06:21:59;;;;;;;2.88;0.75;;;;;;;7.88;100.00;96737.69;4757445;30;20056;-94
2022/09/28 06:24:42;;;;;;;3.28;0.70;;;;;;;8.17;100.00;96735.94;4750739;30;20054;-93
2022/09/28 06:27:21;;;;;;;3.13;0.75;;;;;;;8.23;100.00;96748.72;4765010;30;20127;-95
2022/09/28 06:30:20;;;;;;;;;;;;;;;;;;;;;
2022/09/28 06:32:59;;;;;;;;;;;;;;;;;;;;;
2022/09/28 06:35:36;;;;;;;3.15;0.70;;;;;;;8.32;100.00;96743.22;4719950;30;20047;-94
2022/09/28 06:38:05;;;;;;;4.57;0.60;;;;;;;10.32;100.00;96749.06;4764026;30;20032;-94
2022/09/28 06:40:32;;;;;;;3.60;0.50;;;;;;;8.60;100.00;96751.88;4767354;30;20078;-94
2022/09/28 06:43:11;;;;;;;4.25;0.90;;;;;;;8.51;100.00;96760.84;4764451;30;20031;-95
2022/09/28 06:46:00;;;;;;;2.25;0.60;;;;;;;8.63;100.00;96769.94;4766278;30;20042;-94
2022/09/28 06:48:32;;;;;;;5.53;0.70;;;;;;;8.41;100.00;96762.84;4768285;30;20485;-96
2022/09/28 06:51:11;;;;;;;3.67;0.77;;;;;;;8.70;100.00;96776.66;4750838;30;20490;-94
2022/09/28 06:53:45;;;;;;;4.35;0.70;;;;;;;8.07;100.00;96771.69;4745579;30;20036;-94
2022/09/28 06:56:36;;;;;;;4.32;0.80;;;;;;;8.90;100.00;96785.53;4746795;30;20100;-95
2022/09/28 06:59:07;;;;;;;7.00;0.88;;;;;;;8.55;100.00;96785.81;4747940;30;20028;-94
2022/09/28 07:02:16;;;;;;;3.15;0.75;;;;;;;8.35;100.00;96763.91;4762720;30;20056;-96
2022/09/28 07:04:55;;;;;;;3.53;0.70;;;;;;;8.49;100.00;96781.66;4747808;30;20060;-96
2022/09/28 07:07:24;;;;;;;3.40;0.77;;;;;;;8.41;100.00;96780.19;4743052;30;20036;-94
2022/09/28 07:10:15;;;;;;;;;;;;;;;;;;;;;
2022/09/28 07:13:03;;;;;;;4.57;0.73;;;;;;;8.38;100.00;96773.34;4749414;30;20532;-95
2022/09/28 07:15:42;;;;;;;3.97;0.90;;;;;;;8.19;100.00;96793.84;4763876;30;20658;-94
2022/09/28 07:18:28;;;;;;;4.40;0.65;;;;;;;8.18;100.00;96779.16;4760697;30;20083;-94
2022/09/28 07:21:21;;;;;;;2.90;0.50;;;;;;;8.15;100.00;96793.09;4762167;30;20502;-94
2022/09/28 07:24:12;;;;;;;2.55;0.65;;;;;;;7.84;100.00;96775.00;4748998;30;20044;-93
2022/09/28 07:26:44;;;;;;;2.78;0.70;;;;;;;7.86;100.00;96775.81;4747646;30;20039;-94
2022/09/28 07:29:33;;;;;;;3.10;0.70;;;;;;;7.74;100.00;96773.56;4744362;30;20036;-94
2022/09/28 07:32:02;;;;;;;5.22;0.85;;;;;;;9.30;100.00;96799.75;4764656;30;20039;-94
2022/09/28 07:37:36;;;;;;;5.18;0.88;;;;;;;7.91;100.00;96809.44;4752831;30;20446;-94
2022/09/28 07:43:05;;;;;;;3.90;0.63;;;;;;;8.55;100.00;96793.59;4749719;30;20079;-96
2022/09/28 07:45:44;;;;;;;4.80;0.77;;;;;;;8.61;100.00;96808.16;4750367;30;20048;-96
2022/09/28 07:48:14;;;;;;;3.58;0.90;;;;;;;8.36;100.00;96803.69;4744833;30;20072;-95
2022/09/28 07:50:58;;;;;;;1.73;0.50;;;;;;;8.02;100.00;96787.41;4757566;30;20035;-95
2022/09/28 07:53:42;;;;;;;1.85;0.60;;;;;;;8.57;100.00;96794.41;4748301;30;20044;-96
2022/09/28 07:56:19;;;;;;;6.35;0.85;;;;;;;9.22;100.00;96808.66;4742513;30;20044;-95
2022/09/28 07:58:51;;;;;;;5.22;0.75;;;;;;;9.33;100.00;96818.69;4748143;30;20040;-96
2022/09/28 08:01:23;;;;;;;3.60;0.70;;;;;;;8.78;100.00;96813.66;4744078;30;20061;-94
2022/09/28 08:04:00;;;;;;;2.65;0.52;;;;;;;8.67;100.00;96800.13;4743905;30;20068;-96
2022/09/28 08:06:25;;;;;;;3.60;0.68;;;;;;;8.81;100.00;96808.34;4763061;30;20044;-95
2022/09/28 08:09:03;;;;;;;3.67;0.70;;;;;;;8.83;100.00;96814.31;4749765;30;20724;-93
2022/09/28 08:12:15;;;;;;;7.53;1.10;;;;;;;8.67;100.00;96797.53;4759666;30;20039;-93
2022/09/28 08:14:49;;;;;;;3.13;0.70;;;;;;;9.37;100.00;96816.84;4747220;30;20032;-96
2022/09/28 08:17:28;;;;;;;3.67;0.75;;;;;;;8.90;100.00;96803.75;4766065;30;20197;-93
2022/09/28 08:22:44;;;;;;;3.05;0.60;;;;;;;8.84;100.00;96803.03;4742533;30;20043;-96
2022/09/28 08:25:13;;;;;;;5.28;0.77;;;;;;;8.82;100.00;96811.78;4747864;30;20033;-95
2022/09/28 08:28:22;;;;;;;4.13;0.80;;;;;;;9.33;100.00;96812.66;4747829;30;20478;-96
2022/09/28 08:31:16;;;;;;;2.38;0.80;;;;;;;8.86;100.00;96821.19;4760217;30;20551;-95
2022/09/28 08:33:53;;;;;;;2.78;0.70;;;;;;;9.05;100.00;96814.44;4743127;30;20039;-94
2022/09/28 08:36:42;;;;;;;2.92;0.70;;;;;;;9.20;100.00;96836.50;4760694;30;20053;-96
2022/09/28 08:39:15;;;;;;;7.13;0.90;;;;;;;10.15;100.00;96836.53;4751825;30;20048;-95
2022/09/28 08:42:24;;;;;;;2.35;0.57;;;;;;;10.07;100.00;96838.59;4747924;30;20478;-96
2022/09/28 08:45:15;;;;;;;4.45;0.63;;;;;;;9.47;100.00;96828.59;4750931;30;20134;-95
2022/09/28 08:48:43;;;;;;;1.88;0.60;;;;;;;10.22;100.00;96838.00;4751222;30;20039;-95
2022/09/28 08:51:37;;;;;;;3.13;0.70;;;;;;;10.16;100.00;96832.16;4728870;30;20044;-95
2022/09/28 08:54:40;;;;;;;3.70;0.60;;;;;;;9.74;100.00;96824.16;4718324;30;20102;-94
2022/09/28 08:57:46;;;;;;;3.20;0.85;;;;;;;9.69;100.00;96840.88;4722840;30;20490;-96
2022/09/28 09:00:53;;;;;;;3.75;1.00;;;;;;;9.53;100.00;96825.81;4716687;30;20309;-96
2022/09/28 09:03:49;;;;;;;4.28;0.60;;;;;;;9.63;100.00;96821.13;4727608;30;20880;-96
2022/09/28 09:06:41;;;;;;;3.63;0.70;;;;;;;10.81;100.00;96843.53;4772618;24;20067;-92
2022/09/28 09:09:39;;;;;;;4.65;0.70;;;;;;;10.44;100.00;96850.22;4764883;30;20134;-94
2022/09/28 09:16:38;;;;;;;3.45;0.95;;;;;;;10.92;100.00;96833.53;4723093;30;20041;-92
2022/09/28 09:19:43;;;;;;;2.40;0.55;;;;;;;11.04;100.00;96847.81;4710002;30;20045;-92
2022/09/28 09:22:40;;;;;;;2.20;0.63;;;;;;;10.29;100.00;96845.59;4698685;30;20033;-93
2022/09/28 09:25:49;;;;;;;3.63;0.82;;;;;;;10.21;100.00;96822.41;4695470;30;20087;-92
2022/09/28 09:28:37;;;;;;;4.38;0.88;;;;;;;10.78;100.00;96837.59;4712740;30;20513;-92
2022/09/28 09:31:39;;;;;;;13.35;1.75;;;;;;;11.07;100.00;96845.06;4701738;30;20053;-92
2022/09/28 09:34:48;;;;;;;3.08;0.73;;;;;;;11.49;100.00;96840.69;4709546;30;20083;-93
2022/09/28 09:37:50;;;;;;;3.53;0.70;;;;;;;11.21;100.00;96841.88;4705314;30;20087;-93
2022/09/28 09:40:56;;;;;;;2.47;0.70;;;;;;;10.96;100.00;96826.41;4715656;30;20102;-95
2022/09/28 09:43:57;;;;;;;3.33;0.65;;;;;;;14.54;100.00;96837.03;4708857;30;20086;-93
2022/09/28 09:47:06;;;;;;;2.83;0.88;;;;;;;11.85;100.00;96845.19;4706142;30;20057;-92
2022/09/28 09:49:54;;;;;;;5.45;1.00;;;;;;;13.77;100.00;96838.59;4681203;30;20247;-93
2022/09/28 09:52:47;;;;;;;2.38;0.60;;;;;;;14.64;100.00;96835.63;4709489;30;20135;-94
2022/09/28 09:55:39;;;;;;;3.53;0.80;;;;;;;14.12;100.00;96835.84;4724217;30;20036;-93
2022/09/28 09:58:35;;;;;;;1.40;0.60;;;;;;;13.24;100.00;96846.47;4778663;29;20417;-93
2022/09/28 10:01:10;;;;;;;5.80;1.00;;;;;;;12.67;100.00;96832.75;4766236;30;20042;-94
2022/09/28 10:03:48;;;;;;;4.47;1.00;;;;;;;13.45;100.00;96835.88;4759245;30;20027;-91
2022/09/28 10:06:34;;;;;;;4.55;0.90;;;;;;;13.07;100.00;96838.63;4763242;30;20133;-91
2022/09/28 10:09:12;;;;;;;11.02;1.27;;;;;;;14.16;100.00;96819.88;4770038;29;20507;-90
2022/09/28 10:12:32;;;;;;;4.07;1.00;;;;;;;13.99;100.00;96831.28;4756361;30;20056;-90
2022/09/28 10:15:34;;;;;;;15.40;1.83;;;;;;;12.83;100.00;96831.06;4749933;30;20105;-93
2022/09/28 10:18:22;;;;;;;5.40;0.77;;;;;;;12.12;100.00;96834.44;4765488;30;20407;-93
2022/09/28 10:21:05;;;;;;;2.05;0.50;;;;;;;11.59;100.00;96828.94;4758826;30;20048;-92
2022/09/28 10:24:04;;;;;;;1.92;0.60;;;;;;;13.89;100.00;96819.59;4763904;30;20096;-93
2022/09/28 10:26:40;;;;;;;4.90;1.00;;;;;;;14.83;100.00;96818.84;4777870;29;20076;-91
2022/09/28 10:30:07;;;;;;;2.13;0.65;;;;;;;15.39;100.00;96823.47;4761052;30;20055;-92
2022/09/28 10:33:09;;;;;;;;;;;;;;;;;;;;;
2022/09/28 10:36:11;;;;;;;2.63;0.68;;;;;;;14.76;100.00;96826.19;4759604;30;20036;-94
2022/09/28 10:39:25;;;;;;;1.88;1.15;;;;;;;14.96;100.00;96830.31;4753372;30;20432;-93
2022/09/28 10:41:52;;;;;;;3.45;0.70;;;;;;;14.13;100.00;96819.22;4760321;30;20101;-94
2022/09/28 10:44:21;;;;;;;3.28;0.80;;;;;;;13.07;100.00;96831.63;4759261;30;20043;-91
2022/09/28 10:46:56;;;;;;;6.13;1.00;;;;;;;13.47;100.00;96829.63;4749012;30;20111;-91
2022/09/28 10:49:27;;;;;;;2.08;0.52;;;;;;;13.43;100.00;96832.47;4773494;29;20035;-91
2022/09/28 10:51:55;;;;;;;3.17;0.60;;;;;;;13.14;100.00;96832.19;4758626;30;20050;-91
2022/09/28 10:54:25;;;;;;;3.08;0.52;;;;;;;13.79;100.00;96824.50;4762108;30;20039;-91
2022/09/28 10:56:53;;;;;;;5.30;0.73;;;;;;;13.22;100.00;96816.06;4760167;30;20052;-92
2022/09/28 10:59:33;;;;;;;1.13;0.47;;;;;;;13.21;100.00;96833.56;4759844;30;20046;-93
2022/09/28 11:02:12;;;;;;;4.30;0.90;;;;;;;13.18;100.00;96823.25;4761793;30;20573;-95
2022/09/28 11:04:42;;;;;;;2.63;0.82;;;;;;;13.38;100.00;96831.88;4760024;30;20469;-92
2022/09/28 11:07:23;;;;;;;4.35;0.77;;;;;;;13.36;100.00;96829.34;4761445;30;20100;-92
2022/09/28 11:09:51;;;;;;;2.65;0.50;;;;;;;13.35;100.00;96825.03;4759380;30;20035;-92
2022/09/28 11:12:23;;;;;;;1.70;0.40;;;;;;;13.70;100.00;96813.66;4764587;30;20139;-93
2022/09/28 11:14:58;;;;;;;1.52;0.50;;;;;;;13.12;100.00;96824.41;4760294;30;20035;-93
2022/09/28 11:17:37;;;;;;;3.08;0.52;;;;;;;14.20;100.00;96812.69;4775980;29;20059;-96
2022/09/28 11:20:25;;;;;;;4.28;0.80;;;;;;;13.26;100.00;96835.94;4762664;30;20047;-93
2022/09/28 11:22:53;;;;;;;2.33;0.63;;;;;;;12.93;100.00;96828.84;4758315;30;20544;-92
2022/09/28 11:25:24;;;;;;;1.27;0.55;;;;;;;12.74;100.00;96829.75;4757909;30;20071;-94
2022/09/28 11:27:50;;;;;;;1.77;0.60;;;;;;;12.58;100.00;96834.91;4777018;29;20039;-94
2022/09/28 11:30:23;;;;;;;3.67;0.65;;;;;;;12.76;100.00;96829.69;4765674;30;20035;-94
2022/09/28 11:33:01;;;;;;;2.95;0.60;;;;;;;12.95;100.00;96830.47;4760439;30;20122;-93
2022/09/28 11:35:32;;;;;;;4.18;0.70;;;;;;;13.40;100.00;96822.16;4764808;30;20764;-96
2022/09/28 11:38:34;;;;;;;1.63;0.55;;;;;;;13.97;100.00;96829.66;4766358;30;20070;-95
2022/09/28 11:41:22;;;;;;;2.83;0.77;;;;;;;13.32;100.00;96827.78;4744298;30;20060;-93
2022/09/28 11:44:30;;;;;;;3.28;0.70;;;;;;;12.94;100.00;96833.16;4764481;30;20035;-95
2022/09/28 11:47:04;;;;;;;3.22;0.70;;;;;;;12.42;100.00;96829.53;4766194;30;20098;-94
2022/09/28 11:49:45;;;;;;;3.83;0.80;;;;;;;12.06;100.00;96835.56;4777475;30;20042;-95
2022/09/28 11:52:29;;;;;;;2.78;0.70;;;;;;;12.15;100.00;96823.84;4766048;30;20032;-94
2022/09/28 11:55:11;;;;;;;1.95;0.40;;;;;;;12.43;100.00;96828.63;4764475;30;20552;-95
2022/09/28 11:57:41;;;;;;;3.50;0.80;;;;;;;13.05;100.00;96819.53;4777333;29;20069;-95
2022/09/28 12:00:18;;;;;;;2.25;0.60;;;;;;;14.01;100.00;96815.47;4781134;29;20031;-95
2022/09/28 12:02:59;;;;;;;4.07;0.80;;;;;;;14.00;100.00;96812.00;4767385;30;20041;-96
2022/09/28 12:05:33;;;;;;;6.05;1.60;;;;;;;13.82;100.00;96807.75;4760879;30;20508;-96
2022/09/28 12:08:11;;;;;;;4.55;0.98;;;;;;;13.18;100.00;96817.16;4782804;29;20047;-96
2022/09/28 12:10:56;;;;;;;4.57;0.77;;;;;;;13.07;100.00;96823.78;4773333;30;20399;-95
2022/09/28 12:13:26;;;;;;;4.30;0.75;;;;;;;13.14;100.00;96824.31;4772552;30;20110;-93
2022/09/28 12:16:00;;;;;;;4.25;0.82;;;;;;;12.66;100.00;96823.22;4786241;29;20046;-91
2022/09/28 12:18:38;;;;;;;3.42;0.70;;;;;;;12.97;100.00;96823.41;4784984;29;20114;-94
2022/09/28 12:21:23;;;;;;;2.83;0.70;;;;;;;12.56;100.00;96815.81;4766746;29;20107;-93
2022/09/28 12:23:53;;;;;;;2.80;0.70;;;;;;;12.44;100.00;96809.41;4785317;29;20035;-94
2022/09/28 12:26:28;;;;;;;2.45;0.65;;;;;;;12.81;100.00;96806.75;4780603;29;20625;-94
2022/09/28 12:28:58;;;;;;;3.72;1.00;;;;;;;13.39;100.00;96803.00;4786136;29;20039;-94
2022/09/28 12:31:44;;;;;;;3.33;0.60;;;;;;;13.08;100.00;96808.91;4785282;29;20042;-94
2022/09/28 12:34:09;;;;;;;5.57;0.70;;;;;;;12.31;100.00;96810.06;4779064;29;20041;-94
2022/09/28 12:36:53;;;;;;;4.78;0.80;;;;;;;12.29;100.00;96802.31;4772573;29;20034;-94
2022/09/28 12:39:59;;;;;;;3.30;0.70;;;;;;;12.45;100.00;96818.09;4782369;29;20572;-93
2022/09/28 12:42:51;;;;;;;2.60;0.63;;;;;;;12.24;100.00;96810.34;4784437;29;20464;-94
2022/09/28 12:45:35;;;;;;;4.43;0.88;;;;;;;12.58;100.00;96811.34;4785054;29;20040;-95
2022/09/28 12:48:19;;;;;;;2.97;0.60;;;;;;;12.49;100.00;96803.94;4784792;29;20043;-94
2022/09/28 12:51:30;;;;;;;2.85;0.60;;;;;;;12.13;100.00;96805.59;4766106;30;20518;-94
2022/09/28 12:54:33;;;;;;;2.03;0.60;;;;;;;12.03;100.00;96808.75;4785813;29;20039;-94
2022/09/28 12:57:14;;;;;;;3.33;0.60;;;;;;;12.20;100.00;96805.34;4784768;29;20027;-94
2022/09/28 13:00:11;;;;;;;2.50;0.63;;;;;;;12.17;100.00;96801.09;4779032;29;20039;-94
2022/09/28 13:03:14;;;;;;;4.82;0.60;;;;;;;12.51;100.00;96798.66;4784759;29;20055;-94
2022/09/28 13:06:14;;;;;;;1.13;0.38;;;;;;;13.53;100.00;96783.09;4789040;29;20066;-93